23°C Temp
19°C Dewpoint
78% Humidity
Temperature
11 KM/H
7 MPH
6 KTS
360°
Due North

Wind Speed
Clear
Conditions
Pressure 1020.92 (hPa) - 30.15 (in)
Visibility 6.2 (mi) - 10.0 (km)

Current Conditions
LIMC
Location Malpensa 50(km)
Metar :LIMC 231920Z 36006KT CAVOK 23/19 Q1021 NOSIG
Fri 23rd August 20:20 pm

Airport
  Metar Aviation API Data Provided by https://www.checkwx.com/ PHP scripts by weather34.com ©2019